Terminal Aerodrome Forecast
Issued by NWS Blacksburg, VA

Current Version | Previous Version | Graphics & Text | Print | Product List | Glossary On
Versions: 1 2 3 4 5 6 7 8 9 10 11 12 13 14 15 16 17 18
000
FTUS41 KRNK 280534
TAFBLF
TAF
KBLF 280534Z 2806/2906 VRB03KT P6SM BKN080
     FM280700 26003KT 1 1/2SM BR BKN002
     FM281300 26005KT P6SM BKN060
     FM281800 24007KT P6SM VCTS BKN050CB
     FM290000 27006KT 4SM -SHRA OVC050=

USA.gov is the U.S. government's official web portal to all federal, state and local government web resources and services.